Time;durP1;ratioP1;P1;durP2;ratioP2;P2;SDS_P1;SDS_P2;PMS_P1;PMS_P2;Temp;Humidity;BMP_temperature;BMP_pressure;BME280_temperature;BME280_humidity;BME280_pressure;Samples;Min_cycle;Max_cycle;Signal;HPM_P1;HPM_P2
2022/08/01 00:00:56;;;;;;;3.70;1.20;;;;;;;26.43;45.61;100522.09;4980159;28;20692;-59
2022/08/01 00:03:24;;;;;;;2.28;1.20;;;;;;;26.40;45.99;100528.00;4980833;28;20349;-59
2022/08/01 00:05:53;;;;;;;2.55;1.30;;;;;;;26.39;45.93;100521.75;4981361;28;20220;-59
2022/08/01 00:08:21;;;;;;;2.58;1.20;;;;;;;26.37;46.30;100518.50;4977676;28;20230;-59
2022/08/01 00:10:48;;;;;;;3.10;1.40;;;;;;;26.34;46.48;100521.69;4980905;28;20233;-58
2022/08/01 00:13:16;;;;;;;2.58;1.20;;;;;;;26.34;46.38;100518.16;4979734;28;20210;-58
2022/08/01 00:15:44;;;;;;;2.83;1.10;;;;;;;26.30;46.46;100528.69;4982172;28;20671;-59
2022/08/01 00:18:21;;;;;;;2.22;1.10;;;;;;;26.25;46.69;100523.16;4981331;28;20206;-59
2022/08/01 00:20:49;;;;;;;2.72;1.48;;;;;;;26.21;46.74;100530.19;4979520;28;20305;-59
2022/08/01 00:23:18;;;;;;;7.65;1.25;;;;;;;26.16;46.99;100535.53;4976654;28;20312;-59
2022/08/01 00:25:46;;;;;;;1.35;0.85;;;;;;;26.14;46.84;100524.06;4980253;28;20221;-60
2022/08/01 00:28:14;;;;;;;2.85;1.30;;;;;;;26.16;47.13;100530.09;4984090;28;20233;-58
2022/08/01 00:30:41;;;;;;;5.45;1.17;;;;;;;26.12;47.30;100520.81;4985073;28;20305;-58
2022/08/01 00:33:09;;;;;;;2.15;0.80;;;;;;;26.13;47.28;100522.44;4985484;28;20297;-58
2022/08/01 00:35:37;;;;;;;2.25;1.02;;;;;;;26.12;47.30;100526.25;4980846;28;20209;-58
2022/08/01 00:38:05;;;;;;;2.28;1.08;;;;;;;26.06;47.51;100528.03;4980284;28;20206;-59
2022/08/01 00:40:34;;;;;;;2.97;1.00;;;;;;;26.05;47.57;100528.28;4982833;28;20526;-59
2022/08/01 00:43:02;;;;;;;2.67;0.90;;;;;;;26.02;47.75;100523.38;4980735;28;20302;-59
2022/08/01 00:45:29;;;;;;;3.13;1.10;;;;;;;26.02;47.66;100520.66;4981540;28;20218;-59
2022/08/01 00:47:57;;;;;;;3.30;1.02;;;;;;;26.00;48.06;100528.22;4983905;28;20255;-59
2022/08/01 00:50:27;;;;;;;3.42;0.82;;;;;;;25.93;48.38;100524.84;4984016;28;20215;-59
2022/08/01 00:52:59;;;;;;;2.20;0.82;;;;;;;25.88;48.49;100520.16;4983530;28;20242;-59
2022/08/01 00:55:34;;;;;;;2.38;1.13;;;;;;;25.81;48.71;100523.03;4985806;28;20238;-59
2022/08/01 00:58:18;;;;;;;3.20;1.10;;;;;;;25.74;48.89;100522.38;4981996;28;20213;-59
2022/08/01 01:00:50;;;;;;;1.83;1.02;;;;;;;25.69;48.93;100522.28;4983413;28;20255;-59
2022/08/01 01:03:27;;;;;;;1.70;0.90;;;;;;;25.70;48.88;100518.50;4982056;28;20217;-59
2022/08/01 01:06:41;;;;;;;3.30;1.00;;;;;;;25.68;48.90;100527.97;4982284;28;20615;-59
2022/08/01 01:13:05;;;;;;;2.83;1.00;;;;;;;25.59;49.34;100527.56;4980727;28;20268;-59
2022/08/01 01:15:39;;;;;;;2.28;0.90;;;;;;;25.58;49.47;100530.50;4980798;28;20209;-59
2022/08/01 01:18:12;;;;;;;2.25;1.17;;;;;;;25.56;49.40;100535.34;4980235;28;20212;-58
2022/08/01 01:20:43;;;;;;;1.90;0.70;;;;;;;25.52;49.65;100531.44;4981984;28;20206;-58
2022/08/01 01:23:29;;;;;;;2.35;1.00;;;;;;;25.51;49.65;100540.69;4984673;28;20704;-59
2022/08/01 01:26:24;;;;;;;4.22;0.98;;;;;;;25.47;49.67;100548.47;4985905;28;20202;-59
2022/08/01 01:29:17;;;;;;;3.70;1.10;;;;;;;25.39;49.93;100533.41;4980199;28;20226;-59
2022/08/01 01:32:19;;;;;;;6.40;1.00;;;;;;;25.37;49.93;100532.00;4981888;28;20683;-59
2022/08/01 01:34:59;;;;;;;5.82;1.20;;;;;;;25.35;50.32;100536.84;4988556;28;20214;-58
2022/08/01 01:37:30;;;;;;;2.75;1.10;;;;;;;25.34;50.30;100535.19;4988876;28;20237;-59
2022/08/01 01:40:00;;;;;;;1.40;0.77;;;;;;;25.30;50.51;100543.03;4987465;28;20205;-60
2022/08/01 01:42:32;;;;;;;1.67;0.73;;;;;;;25.24;50.46;100545.88;4983622;28;20210;-59
2022/08/01 01:45:15;;;;;;;3.08;0.75;;;;;;;25.26;50.39;100546.44;4986033;28;20213;-58
2022/08/01 01:47:46;;;;;;;1.67;1.02;;;;;;;25.23;50.81;100544.25;4981905;28;20602;-58
2022/08/01 01:50:15;;;;;;;1.92;0.95;;;;;;;25.25;50.51;100548.34;4982829;28;20213;-57
2022/08/01 01:53:06;;;;;;;2.42;1.00;;;;;;;25.28;50.49;100557.88;4983112;28;20225;-58
2022/08/01 01:55:54;;;;;;;1.90;0.80;;;;;;;25.26;50.68;100554.59;4984806;28;20205;-58
2022/08/01 01:58:37;;;;;;;2.33;0.98;;;;;;;25.23;50.95;100553.19;4986274;28;20210;-57
2022/08/01 02:01:08;;;;;;;2.88;1.00;;;;;;;25.19;51.15;100551.19;4985177;28;20229;-57
2022/08/01 02:03:49;;;;;;;2.20;0.95;;;;;;;25.19;51.04;100552.03;4979596;28;20578;-59
2022/08/01 02:06:32;;;;;;;2.00;0.80;;;;;;;25.14;51.18;100561.97;4983209;28;20559;-59
2022/08/01 02:09:02;;;;;;;1.70;0.85;;;;;;;25.12;51.37;100556.78;4981416;28;20226;-57
2022/08/01 02:11:40;;;;;;;2.53;1.00;;;;;;;25.11;51.23;100552.41;4983382;28;20241;-57
2022/08/01 02:14:35;;;;;;;3.53;1.13;;;;;;;25.09;51.50;100547.22;4982683;28;20232;-57
2022/08/01 02:17:04;;;;;;;3.58;1.02;;;;;;;25.07;51.41;100557.47;4985948;28;20224;-57
2022/08/01 02:42:58;;;;;;;1.83;1.00;;;;;;;24.83;52.10;100550.44;4986340;28;20260;-59
2022/08/01 02:46:25;;;;;;;2.50;0.98;;;;;;;24.79;52.24;100553.91;4984394;28;20244;-60
2022/08/01 02:48:59;;;;;;;4.60;1.10;;;;;;;24.68;52.67;100558.28;4983880;28;20699;-59
2022/08/01 02:51:28;;;;;;;1.98;1.00;;;;;;;24.68;52.50;100547.44;4983908;28;20218;-58
2022/08/01 02:53:57;;;;;;;3.47;1.00;;;;;;;24.56;52.90;100552.03;4984594;28;20210;-60
2022/08/01 02:56:34;;;;;;;2.50;1.00;;;;;;;24.45;53.23;100553.69;4981955;28;20215;-58
2022/08/01 02:59:05;;;;;;;2.70;1.00;;;;;;;24.38;53.39;100558.41;4980039;28;20747;-59
2022/08/01 03:01:35;;;;;;;1.90;1.00;;;;;;;24.26;53.89;100560.31;4986062;28;20205;-58
2022/08/01 03:04:05;;;;;;;2.13;0.90;;;;;;;24.03;54.44;100550.25;4983818;28;20214;-58
2022/08/01 03:06:38;;;;;;;1.30;0.80;;;;;;;24.02;54.61;100552.13;4981794;28;20222;-59
2022/08/01 03:09:33;;;;;;;4.18;1.33;;;;;;;23.87;55.10;100556.34;4981697;28;20349;-59
2022/08/01 03:12:10;;;;;;;1.42;0.88;;;;;;;23.76;55.28;100549.84;4970968;28;20242;-58
2022/08/01 03:14:43;;;;;;;2.25;1.10;;;;;;;23.71;55.27;100571.41;4983318;28;20238;-59
2022/08/01 03:20:47;;;;;;;1.53;0.80;;;;;;;23.64;55.32;100573.38;4969504;28;20216;-59
2022/08/01 03:23:16;;;;;;;3.58;1.10;;;;;;;23.64;55.45;100570.69;4984476;28;20464;-58
2022/08/01 03:25:46;;;;;;;2.97;1.00;;;;;;;23.67;55.28;100567.50;4982144;28;20218;-58
2022/08/01 03:28:16;;;;;;;2.93;1.27;;;;;;;23.63;55.68;100569.84;4981500;28;20575;-57
2022/08/01 03:30:47;;;;;;;2.63;1.27;;;;;;;23.57;55.87;100568.03;4985058;28;20217;-58
2022/08/01 03:37:10;;;;;;;1.50;1.08;;;;;;;23.56;55.95;100571.84;4936362;28;20720;-59
2022/08/01 03:39:52;;;;;;;1.95;1.20;;;;;;;23.55;55.94;100570.19;4936021;28;20217;-59
2022/08/01 03:42:29;;;;;;;2.87;1.10;;;;;;;23.52;55.97;100575.22;4971457;28;20224;-59
2022/08/01 03:45:02;;;;;;;3.93;1.30;;;;;;;23.54;56.13;100571.25;4978418;28;20423;-59
2022/08/01 03:47:35;;;;;;;2.53;1.30;;;;;;;23.63;55.98;100569.84;4984268;28;20206;-59
2022/08/01 03:50:16;;;;;;;3.63;1.23;;;;;;;23.62;56.02;100570.91;4983306;28;20222;-59
2022/08/01 03:52:50;;;;;;;4.13;1.23;;;;;;;23.68;56.06;100571.03;4980241;28;20349;-59
2022/08/01 03:55:25;;;;;;;3.57;1.37;;;;;;;23.69;55.96;100572.69;4981529;28;20274;-59
2022/08/01 03:58:14;;;;;;;3.15;1.15;;;;;;;23.79;55.94;100562.13;4979471;28;20219;-61
2022/08/01 04:00:44;;;;;;;1.88;1.15;;;;;;;23.89;55.29;100565.91;4979328;28;20206;-57
2022/08/01 04:03:18;;;;;;;5.80;1.17;;;;;;;24.04;55.09;100554.59;4976140;28;21526;-56
2022/08/01 04:05:45;;;;;;;2.38;1.42;;;;;;;24.09;54.96;100560.16;4977926;28;20241;-59
2022/08/01 04:08:17;;;;;;;2.35;1.15;;;;;;;24.18;54.53;100560.66;4976491;28;20267;-59
2022/08/01 04:10:55;;;;;;;2.65;1.23;;;;;;;24.21;54.17;100563.72;4978528;28;20672;-59
2022/08/01 04:13:24;;;;;;;2.35;1.17;;;;;;;24.23;54.32;100571.63;4979212;28;20332;-59
2022/08/01 04:16:03;;;;;;;5.18;1.40;;;;;;;24.29;54.17;100570.66;4977710;28;20221;-59
2022/08/01 04:18:38;;;;;;;4.88;1.30;;;;;;;24.32;53.87;100575.63;4979870;28;20206;-58
2022/08/01 04:21:06;;;;;;;7.35;1.40;;;;;;;24.31;54.05;100573.97;4977438;28;20257;-59
2022/08/01 04:23:36;;;;;;;5.65;1.63;;;;;;;24.25;54.33;100575.75;4979359;28;20210;-59
2022/08/01 04:26:05;;;;;;;3.17;1.40;;;;;;;24.24;54.45;100579.53;4977782;28;20675;-59
2022/08/01 04:28:36;;;;;;;3.47;1.60;;;;;;;24.28;54.02;100583.38;4982296;28;20692;-59
2022/08/01 04:31:09;;;;;;;5.15;1.45;;;;;;;24.30;54.35;100585.88;4979091;28;20227;-59
2022/08/01 04:33:41;;;;;;;3.72;1.15;;;;;;;24.34;54.40;100589.78;4980994;28;20311;-59
2022/08/01 04:36:12;;;;;;;7.68;1.88;;;;;;;24.36;54.17;100598.50;4981421;28;20581;-59
2022/08/01 04:38:53;;;;;;;6.28;1.95;;;;;;;24.34;54.16;100590.59;4977667;28;20685;-59
2022/08/01 04:41:26;;;;;;;4.00;1.70;;;;;;;24.34;53.98;100590.59;4980478;28;20214;-59
2022/08/01 04:44:35;;;;;;;4.18;1.65;;;;;;;24.32;54.26;100595.44;4983077;28;20598;-58
2022/08/01 04:47:05;;;;;;;5.20;1.58;;;;;;;24.31;54.24;100601.06;4980296;28;20211;-59
2022/08/01 04:49:33;;;;;;;8.10;1.63;;;;;;;24.34;53.93;100601.44;4979457;28;20225;-58
2022/08/01 04:52:41;;;;;;;4.45;1.90;;;;;;;24.36;54.07;100601.22;4982826;28;20214;-59
2022/08/01 04:55:27;;;;;;;3.70;1.90;;;;;;;24.35;54.12;100602.28;4978107;28;20292;-58
2022/08/01 04:57:55;;;;;;;5.40;2.30;;;;;;;24.36;54.05;100603.91;4976967;28;20212;-58
2022/08/01 05:00:23;;;;;;;8.65;2.63;;;;;;;24.40;54.03;100604.25;4980812;28;20222;-58
2022/08/01 05:02:57;;;;;;;7.20;1.92;;;;;;;24.37;54.36;100603.66;4978918;28;20627;-59
2022/08/01 05:05:47;;;;;;;6.18;2.15;;;;;;;24.38;54.25;100608.03;4982947;28;20263;-59
2022/08/01 05:08:24;;;;;;;5.88;2.78;;;;;;;24.41;53.96;100608.63;4957477;28;20214;-58
2022/08/01 05:11:29;;;;;;;4.53;1.77;;;;;;;24.42;53.92;100604.84;4980249;28;20236;-59
2022/08/01 05:14:07;;;;;;;6.75;1.52;;;;;;;24.43;54.17;100609.22;4979797;28;20488;-59
2022/08/01 05:16:37;;;;;;;3.25;1.48;;;;;;;24.46;54.15;100606.00;4982886;28;20209;-59
2022/08/01 05:19:14;;;;;;;4.82;1.60;;;;;;;24.50;54.12;100609.91;4980355;28;20306;-56
2022/08/01 05:21:44;;;;;;;3.22;1.50;;;;;;;24.48;54.29;100607.44;4970188;28;20205;-59
2022/08/01 05:24:20;;;;;;;5.68;1.67;;;;;;;24.56;54.05;100614.38;4967202;28;20219;-58
2022/08/01 05:30:11;;;;;;;6.65;3.90;;;;;;;24.59;54.08;100613.94;4963010;28;20241;-58
2022/08/01 05:33:29;;;;;;;7.22;2.40;;;;;;;24.63;53.94;100621.34;4990662;28;20210;-58
2022/08/01 05:36:04;;;;;;;4.13;1.30;;;;;;;24.66;54.06;100620.03;4984286;28;20212;-58
2022/08/01 05:38:40;;;;;;;3.83;1.60;;;;;;;24.67;54.07;100625.25;4985901;28;20220;-59
2022/08/01 05:41:14;;;;;;;4.35;1.50;;;;;;;24.72;53.81;100621.81;4985397;28;20289;-59
2022/08/01 05:43:45;;;;;;;6.25;1.50;;;;;;;24.72;53.75;100628.03;4986918;28;21144;-59
2022/08/01 05:46:16;;;;;;;3.97;1.35;;;;;;;24.74;53.72;100623.22;4986570;28;20224;-59
2022/08/01 05:48:45;;;;;;;6.68;1.45;;;;;;;24.81;53.47;100628.50;4986109;28;20211;-58
2022/08/01 05:51:23;;;;;;;6.30;1.60;;;;;;;24.84;53.12;100616.38;4986279;28;20221;-59
2022/08/01 05:53:51;;;;;;;6.05;1.50;;;;;;;24.87;53.16;100621.34;4983775;28;20218;-59
2022/08/01 05:56:22;;;;;;;5.38;1.83;;;;;;;24.91;52.85;100612.50;4985456;28;20233;-59
2022/08/01 05:59:01;;;;;;;3.70;1.55;;;;;;;24.91;53.06;100623.34;4984875;28;20217;-59
2022/08/01 06:01:32;;;;;;;4.95;1.75;;;;;;;24.94;53.09;100622.88;4993995;28;20208;-60
2022/08/01 06:04:01;;;;;;;4.53;1.77;;;;;;;24.90;53.04;100616.22;4989599;28;20209;-57
2022/08/01 06:06:30;;;;;;;4.90;1.77;;;;;;;24.91;52.81;100627.91;4979374;28;20206;-58
2022/08/01 06:08:58;;;;;;;4.63;1.17;;;;;;;24.97;52.86;100624.28;4985580;28;20312;-59
2022/08/01 06:11:29;;;;;;;2.83;1.30;;;;;;;25.00;53.18;100615.66;4992901;28;20226;-59
2022/08/01 06:13:57;;;;;;;6.63;1.25;;;;;;;25.05;52.46;100624.75;4992490;28;20263;-61
2022/08/01 06:16:26;;;;;;;4.63;1.45;;;;;;;25.01;52.70;100622.75;4984481;28;20202;-60
2022/08/01 06:18:56;;;;;;;6.53;1.50;;;;;;;25.05;52.85;100630.19;4987289;28;20245;-61
2022/08/01 06:21:24;;;;;;;7.55;1.27;;;;;;;25.06;52.96;100634.53;4985125;28;20224;-60
2022/08/01 06:23:52;;;;;;;3.92;1.20;;;;;;;25.06;53.02;100625.56;4986052;28;20210;-61
2022/08/01 06:26:20;;;;;;;1.75;0.95;;;;;;;25.06;53.12;100628.28;4984811;28;20202;-60
2022/08/01 06:28:48;;;;;;;3.97;1.45;;;;;;;25.18;52.66;100633.66;4983762;28;20214;-60
2022/08/01 06:31:16;;;;;;;2.83;1.20;;;;;;;25.15;52.94;100629.56;4980674;28;20244;-60
2022/08/01 06:33:45;;;;;;;2.67;1.20;;;;;;;25.28;52.46;100639.31;4985152;28;20233;-60
2022/08/01 06:36:13;;;;;;;3.30;1.10;;;;;;;25.37;52.38;100637.88;4986943;28;20219;-61
2022/08/01 06:38:43;;;;;;;3.40;1.15;;;;;;;25.44;52.21;100635.81;4983722;28;20218;-59
2022/08/01 06:41:11;;;;;;;2.55;1.27;;;;;;;25.50;52.02;100648.47;4986413;28;20305;-57
2022/08/01 06:43:39;;;;;;;4.07;1.20;;;;;;;25.47;52.09;100643.50;4990662;28;20293;-59
2022/08/01 06:46:06;;;;;;;2.65;1.00;;;;;;;25.45;51.94;100645.63;4995515;28;20202;-60
2022/08/01 06:48:35;;;;;;;2.80;1.20;;;;;;;25.43;52.20;100647.75;4989586;28;20213;-60
2022/08/01 06:51:17;;;;;;;2.80;1.33;;;;;;;25.42;52.20;100646.09;4994506;28;20258;-59
2022/08/01 06:53:45;;;;;;;3.08;1.52;;;;;;;25.45;51.74;100651.06;4990195;28;20220;-59
2022/08/01 06:56:12;;;;;;;4.90;1.85;;;;;;;25.53;52.56;100647.94;4996323;28;20214;-57
2022/08/01 06:58:42;;;;;;;2.88;1.42;;;;;;;25.56;52.32;100647.47;4993052;28;20220;-59
2022/08/01 07:01:10;;;;;;;4.30;1.30;;;;;;;25.61;52.16;100655.75;4991803;28;20581;-59
2022/08/01 07:03:38;;;;;;;4.15;1.10;;;;;;;25.67;51.93;100651.25;4995646;28;20217;-58
2022/08/01 07:06:22;;;;;;;3.67;1.60;;;;;;;25.71;51.54;100655.94;4991796;28;20682;-59
2022/08/01 07:08:50;;;;;;;1.50;0.93;;;;;;;25.72;52.12;100652.16;4991634;28;20210;-58
2022/08/01 07:11:18;;;;;;;6.20;1.50;;;;;;;25.75;52.12;100651.69;4989590;28;20233;-58
2022/08/01 07:13:46;;;;;;;5.78;1.67;;;;;;;25.84;51.45;100661.09;4977810;28;20248;-59
2022/08/01 07:16:14;;;;;;;5.53;1.27;;;;;;;25.88;51.37;100653.25;4971020;28;20233;-59
2022/08/01 07:18:42;;;;;;;4.95;1.02;;;;;;;25.95;51.32;100653.13;4969163;28;20215;-60
2022/08/01 07:21:10;;;;;;;2.70;1.38;;;;;;;25.88;51.44;100639.69;4970171;28;20213;-58
2022/08/01 07:23:59;;;;;;;4.35;1.50;;;;;;;25.82;51.22;100646.91;4971478;28;20214;-61
2022/08/01 07:26:27;;;;;;;2.05;1.15;;;;;;;25.89;51.41;100633.19;4958169;28;20781;-59
2022/08/01 07:28:55;;;;;;;4.07;1.40;;;;;;;25.90;51.12;100631.28;4964322;28;20215;-59
2022/08/01 07:31:23;;;;;;;2.60;1.25;;;;;;;25.92;51.48;100629.97;4965367;28;20729;-59
2022/08/01 07:33:56;;;;;;;4.95;1.25;;;;;;;25.87;51.49;100632.59;4961643;28;20207;-59
2022/08/01 07:36:23;;;;;;;8.05;1.45;;;;;;;25.80;51.72;100637.34;4960514;28;20217;-59
2022/08/01 07:38:51;;;;;;;5.18;1.90;;;;;;;25.89;51.88;100629.63;4957035;28;20210;-59
2022/08/01 07:41:20;;;;;;;2.35;1.17;;;;;;;25.86;51.81;100630.94;4955837;28;20214;-58
2022/08/01 07:44:08;;;;;;;3.25;1.45;;;;;;;25.93;51.78;100633.53;4957246;28;20329;-61
2022/08/01 07:46:36;;;;;;;7.05;1.52;;;;;;;25.92;51.73;100637.31;4956426;28;20633;-59
2022/08/01 07:49:04;;;;;;;3.03;1.63;;;;;;;25.84;52.23;100633.09;4971536;28;20208;-59
2022/08/01 07:51:32;;;;;;;8.15;1.80;;;;;;;25.85;52.15;100629.31;4975212;28;20559;-59
2022/08/01 07:54:00;;;;;;;3.63;1.65;;;;;;;25.92;51.87;100623.72;4972835;28;20217;-60
2022/08/01 07:56:29;;;;;;;3.60;1.50;;;;;;;26.04;51.64;100622.56;4972425;28;20300;-60
2022/08/01 07:58:57;;;;;;;1.70;1.35;;;;;;;26.30;50.88;100632.00;4969470;28;20207;-59
2022/08/01 08:01:25;;;;;;;4.95;1.42;;;;;;;26.39;51.18;100629.69;4963659;28;20199;-59
2022/08/01 08:03:53;;;;;;;4.80;1.65;;;;;;;26.48;50.37;100629.00;4968136;28;20219;-60
2022/08/01 08:06:21;;;;;;;3.50;1.33;;;;;;;26.47;50.51;100640.16;4970126;28;20690;-60
2022/08/01 08:08:49;;;;;;;3.72;1.77;;;;;;;26.35;50.65;100637.53;4973939;28;20222;-60
2022/08/01 08:11:17;;;;;;;3.72;1.45;;;;;;;26.26;50.52;100638.16;4971565;28;20230;-58
2022/08/01 08:13:46;;;;;;;7.15;2.22;;;;;;;26.20;51.06;100648.13;4984564;28;20246;-59
2022/08/01 08:16:13;;;;;;;4.32;1.80;;;;;;;26.18;51.22;100644.81;4987451;28;20300;-58
2022/08/01 08:18:41;;;;;;;5.05;1.42;;;;;;;26.18;50.99;100639.38;4988218;28;20285;-59
2022/08/01 08:21:09;;;;;;;2.65;1.33;;;;;;;26.18;51.06;100644.81;4987693;28;20416;-59
2022/08/01 08:26:23;;;;;;;2.15;1.52;;;;;;;26.21;51.80;100644.34;4985042;28;20238;-59
2022/08/01 08:28:52;;;;;;;10.27;1.83;;;;;;;26.30;50.81;100642.84;4987257;28;20213;-59
2022/08/01 08:31:20;;;;;;;3.90;1.85;;;;;;;26.34;51.01;100641.31;4985521;28;20607;-60
2022/08/01 08:34:07;;;;;;;3.25;1.20;;;;;;;26.40;50.58;100645.75;4986136;28;20214;-60
2022/08/01 08:36:35;;;;;;;1.58;1.33;;;;;;;26.49;50.71;100629.84;4982248;28;20228;-60
2022/08/01 08:39:05;;;;;;;3.70;1.48;;;;;;;26.50;50.89;100632.31;4984759;28;20675;-60
2022/08/01 08:41:33;;;;;;;2.53;1.83;;;;;;;26.71;50.89;100633.44;4984989;28;20212;-60
2022/08/01 08:44:08;;;;;;;2.53;1.70;;;;;;;26.84;50.41;100637.69;4984573;28;20888;-58
2022/08/01 08:46:42;;;;;;;3.22;1.83;;;;;;;27.01;50.22;100630.31;4982871;28;20213;-59
2022/08/01 08:49:10;;;;;;;3.47;1.58;;;;;;;27.14;49.66;100629.16;4980781;28;20214;-59
2022/08/01 08:51:40;;;;;;;2.40;1.67;;;;;;;27.25;48.81;100629.03;4979921;28;20234;-59
2022/08/01 08:54:11;;;;;;;4.03;1.80;;;;;;;27.14;49.08;100616.34;4987499;28;20210;-59
2022/08/01 08:56:39;;;;;;;3.08;1.65;;;;;;;27.03;49.56;100627.34;4986201;28;20624;-57
2022/08/01 08:59:08;;;;;;;2.78;1.52;;;;;;;26.95;49.55;100628.63;4984359;28;20209;-59
2022/08/01 09:01:36;;;;;;;4.20;1.52;;;;;;;26.83;49.88;100636.84;4989224;28;20302;-59
2022/08/01 09:04:04;;;;;;;5.43;1.80;;;;;;;26.69;49.75;100634.75;4988208;28;20220;-58
2022/08/01 09:06:33;;;;;;;2.38;1.42;;;;;;;26.60;50.07;100626.19;4988840;28;20210;-58
2022/08/01 09:09:01;;;;;;;3.95;1.67;;;;;;;26.51;50.14;100623.09;4990801;28;20206;-59
2022/08/01 09:11:29;;;;;;;4.50;2.20;;;;;;;26.51;49.89;100624.97;4988860;28;20586;-57
2022/08/01 09:14:08;;;;;;;3.50;2.50;;;;;;;26.45;50.09;100624.09;4988405;28;20722;-59
2022/08/01 09:16:38;;;;;;;2.63;1.73;;;;;;;26.41;50.27;100633.81;4989616;28;20718;-59
2022/08/01 09:19:15;;;;;;;3.10;1.60;;;;;;;26.38;50.71;100634.31;4993208;28;20677;-59
2022/08/01 09:22:05;;;;;;;3.90;1.73;;;;;;;26.36;50.84;100638.34;4990000;28;20221;-59
2022/08/01 09:24:35;;;;;;;3.42;1.90;;;;;;;26.33;50.14;100639.66;4994230;28;20213;-58
2022/08/01 09:27:16;;;;;;;3.22;1.50;;;;;;;26.34;49.96;100649.47;4993683;28;20206;-61
2022/08/01 09:29:51;;;;;;;2.92;1.70;;;;;;;26.37;50.33;100646.25;4990186;28;20224;-62
2022/08/01 09:32:29;;;;;;;2.35;1.75;;;;;;;26.38;51.10;100649.81;4988160;28;20234;-61
2022/08/01 09:35:24;;;;;;;3.40;1.95;;;;;;;26.35;51.44;100656.56;4988798;28;20205;-61
2022/08/01 09:38:15;;;;;;;2.80;1.90;;;;;;;26.34;51.13;100652.19;4988638;28;20206;-63
2022/08/01 09:40:46;;;;;;;3.53;1.92;;;;;;;26.37;51.28;100648.16;4989432;28;20206;-59
2022/08/01 09:43:17;;;;;;;2.65;1.50;;;;;;;26.54;50.78;100643.53;4989099;28;20586;-59
2022/08/01 09:45:47;;;;;;;5.97;2.08;;;;;;;26.64;50.65;100651.03;4991010;28;20707;-59
2022/08/01 09:48:17;;;;;;;4.10;1.88;;;;;;;26.65;50.16;100644.50;4982680;28;20217;-59
2022/08/01 09:50:47;;;;;;;10.00;2.13;;;;;;;26.61;50.82;100649.63;4989579;28;20782;-58
2022/08/01 09:53:16;;;;;;;7.07;2.22;;;;;;;26.65;50.86;100647.22;4987157;28;20230;-59
2022/08/01 09:56:09;;;;;;;3.65;2.00;;;;;;;26.59;50.31;100646.31;4990026;28;20280;-57
2022/08/01 09:58:53;;;;;;;2.33;1.80;;;;;;;26.58;50.28;100648.19;4984813;28;20214;-58
2022/08/01 10:01:29;;;;;;;5.90;1.85;;;;;;;26.53;50.28;100642.69;4987121;28;20333;-58
2022/08/01 10:04:10;;;;;;;4.93;2.10;;;;;;;26.48;50.09;100642.59;4989639;28;20390;-59
2022/08/01 10:06:39;;;;;;;4.60;2.22;;;;;;;26.51;50.68;100644.00;4986996;28;20225;-59
2022/08/01 10:09:09;;;;;;;3.13;1.83;;;;;;;26.63;50.45;100635.78;4990137;28;20640;-59
2022/08/01 10:11:38;;;;;;;3.70;2.03;;;;;;;26.79;50.04;100645.78;4990329;28;20313;-59
2022/08/01 10:14:08;;;;;;;4.18;2.35;;;;;;;26.90;49.96;100645.69;4987304;28;20269;-59
2022/08/01 10:16:40;;;;;;;2.85;1.88;;;;;;;27.04;48.53;100639.91;4986476;28;20203;-57
2022/08/01 10:19:08;;;;;;;3.95;2.13;;;;;;;27.08;48.21;100641.06;4988487;28;20289;-58
2022/08/01 10:21:43;;;;;;;3.75;1.77;;;;;;;27.06;48.42;100646.75;4985209;28;20257;-58
2022/08/01 10:24:27;;;;;;;2.53;1.77;;;;;;;27.02;48.29;100642.88;4987366;28;20240;-60
2022/08/01 10:27:02;;;;;;;3.03;1.70;;;;;;;26.99;48.60;100635.22;4984795;28;20217;-60
2022/08/01 10:29:42;;;;;;;4.95;2.15;;;;;;;26.95;48.58;100634.06;4986447;28;20257;-59
2022/08/01 10:32:32;;;;;;;7.47;2.55;;;;;;;26.86;49.05;100636.38;4988389;28;20695;-59
2022/08/01 10:35:04;;;;;;;3.35;2.10;;;;;;;26.88;49.29;100638.84;4989661;28;20276;-57
2022/08/01 10:37:34;;;;;;;3.97;2.03;;;;;;;26.85;49.44;100633.91;4985890;28;20328;-59
2022/08/01 10:40:18;;;;;;;2.95;2.00;;;;;;;26.90;49.90;100633.97;4989418;28;20572;-59
2022/08/01 10:43:03;;;;;;;2.58;2.03;;;;;;;27.06;49.24;100630.41;4986387;28;20202;-59
2022/08/01 10:45:31;;;;;;;4.35;1.92;;;;;;;27.23;48.90;100633.91;4989808;28;20210;-60
2022/08/01 10:48:06;;;;;;;2.65;1.88;;;;;;;27.46;48.23;100629.25;4986055;28;20210;-59
2022/08/01 10:50:42;;;;;;;3.50;2.08;;;;;;;27.63;48.21;100624.53;4984106;28;20664;-59
2022/08/01 10:53:17;;;;;;;5.03;2.08;;;;;;;27.89;47.21;100612.00;4987631;28;20256;-59
2022/08/01 10:56:01;;;;;;;2.65;1.95;;;;;;;28.12;47.00;100611.66;4988888;28;20217;-59
2022/08/01 10:58:33;;;;;;;4.70;2.15;;;;;;;28.43;46.08;100612.72;4985875;28;20206;-58
2022/08/01 11:01:17;;;;;;;5.20;1.90;;;;;;;28.70;44.77;100608.00;4987385;28;20194;-59
2022/08/01 11:04:07;;;;;;;3.25;1.83;;;;;;;28.78;44.60;100606.69;4987245;28;20213;-58
2022/08/01 11:06:48;;;;;;;4.75;1.40;;;;;;;28.85;44.80;100601.81;4989015;28;20792;-59
2022/08/01 11:09:24;;;;;;;4.45;1.65;;;;;;;28.89;45.29;100605.66;4990212;28;20206;-60
2022/08/01 11:12:08;;;;;;;5.13;1.77;;;;;;;28.94;45.01;100607.63;4986437;28;20284;-59
2022/08/01 11:15:30;;;;;;;5.85;1.75;;;;;;;28.95;44.32;100609.25;4969706;28;20655;-59
2022/08/01 11:18:03;;;;;;;6.15;1.80;;;;;;;29.09;44.63;100604.94;4965314;28;20246;-59
2022/08/01 11:20:35;;;;;;;2.47;1.30;;;;;;;29.10;44.63;100596.50;4969403;28;20207;-59
2022/08/01 11:23:19;;;;;;;3.35;1.65;;;;;;;29.16;43.46;100594.59;4964843;28;20202;-60
2022/08/01 11:26:12;;;;;;;3.58;1.30;;;;;;;29.12;43.87;100596.19;4969023;28;20222;-60
2022/08/01 11:28:41;;;;;;;1.67;1.30;;;;;;;29.18;42.89;100597.88;4965529;28;20218;-59
2022/08/01 11:31:31;;;;;;;4.53;1.65;;;;;;;29.09;43.34;100591.28;4970174;28;20202;-59
2022/08/01 11:34:03;;;;;;;3.58;1.20;;;;;;;29.26;42.98;100593.81;4967301;28;20210;-60
2022/08/01 11:36:33;;;;;;;3.30;1.20;;;;;;;29.19;43.88;100586.69;4969149;28;20572;-59
2022/08/01 11:39:20;;;;;;;2.88;1.75;;;;;;;29.12;43.79;100588.00;4968628;28;20245;-59
2022/08/01 11:41:49;;;;;;;1.98;1.40;;;;;;;29.16;43.20;100584.50;4968936;28;20219;-59
2022/08/01 11:44:49;;;;;;;2.78;1.40;;;;;;;29.44;42.84;100580.50;4969496;28;20203;-60
2022/08/01 11:47:18;;;;;;;2.17;1.20;;;;;;;29.59;42.10;100581.63;4965251;28;20242;-58
2022/08/01 11:49:54;;;;;;;2.05;1.10;;;;;;;29.51;42.59;100575.59;4968055;28;20222;-59
2022/08/01 11:52:29;;;;;;;4.88;1.27;;;;;;;29.39;42.34;100572.28;4968520;28;20226;-59
2022/08/01 11:54:59;;;;;;;2.92;1.33;;;;;;;29.18;42.80;100571.41;4969212;28;20762;-59
2022/08/01 11:57:30;;;;;;;3.13;1.00;;;;;;;29.07;42.82;100564.25;4968675;28;20202;-59
2022/08/01 12:00:10;;;;;;;2.38;1.10;;;;;;;29.03;42.56;100568.59;4966323;28;20294;-58
2022/08/01 12:02:44;;;;;;;3.63;1.40;;;;;;;29.13;42.50;100556.91;4969953;28;20213;-60
2022/08/01 12:05:16;;;;;;;2.92;1.17;;;;;;;29.13;42.73;100559.63;4967539;28;20215;-58
2022/08/01 12:07:50;;;;;;;5.20;1.40;;;;;;;29.08;43.18;100565.09;4966883;28;20210;-59
2022/08/01 12:10:21;;;;;;;2.33;1.48;;;;;;;29.09;43.15;100566.72;4967438;28;20722;-59
2022/08/01 12:12:51;;;;;;;3.08;1.70;;;;;;;28.89;44.13;100566.63;4975931;28;20242;-59
2022/08/01 12:15:20;;;;;;;4.57;1.50;;;;;;;28.81;43.89;100565.25;4979112;28;20211;-61
2022/08/01 12:17:49;;;;;;;3.90;1.45;;;;;;;28.77;43.67;100564.13;4986332;28;20661;-59
2022/08/01 12:20:28;;;;;;;4.25;1.48;;;;;;;28.63;44.31;100565.66;4984912;28;20237;-59
2022/08/01 12:23:01;;;;;;;3.25;1.40;;;;;;;28.63;44.72;100557.47;4985501;28;20683;-60
2022/08/01 12:25:29;;;;;;;4.75;1.25;;;;;;;28.70;44.14;100553.44;4985165;28;20224;-59
2022/08/01 12:28:01;;;;;;;2.63;1.80;;;;;;;28.82;44.00;100555.97;4987014;28;20218;-59
2022/08/01 12:30:30;;;;;;;4.90;1.58;;;;;;;28.89;43.93;100547.53;4987018;28;20204;-59
2022/08/01 12:32:58;;;;;;;5.38;1.60;;;;;;;28.81;44.44;100551.59;4986145;28;20592;-59
2022/08/01 12:35:28;;;;;;;1.33;1.02;;;;;;;28.77;43.53;100545.84;4987043;28;20214;-60
2022/08/01 12:38:02;;;;;;;4.70;1.60;;;;;;;28.87;43.21;100547.78;4985483;28;20210;-60